sensor_id;sensor_type;location;lat;lon;timestamp;pressure;altitude;pressure_sealevel;temperature;humidity
60417;BME280;46263;44.726;10.396;2024-01-15T00:00:42;99572.59;;;6.63;87.49
60417;BME280;46263;44.726;10.396;2024-01-15T00:03:07;99574.03;;;6.75;86.15
60417;BME280;46263;44.726;10.396;2024-01-15T00:05:33;99574.84;;;6.70;86.43
60417;BME280;46263;44.726;10.396;2024-01-15T00:07:58;99558.50;;;6.61;87.29
60417;BME280;46263;44.726;10.396;2024-01-15T00:10:24;99559.13;;;6.43;86.84
60417;BME280;46263;44.726;10.396;2024-01-15T00:12:49;99544.69;;;6.50;88.20
60417;BME280;46263;44.726;10.396;2024-01-15T00:15:15;99532.78;;;6.55;87.42
60417;BME280;46263;44.726;10.396;2024-01-15T00:17:40;99549.34;;;6.71;87.67
60417;BME280;46263;44.726;10.396;2024-01-15T00:20:07;99540.34;;;6.89;86.25
60417;BME280;46263;44.726;10.396;2024-01-15T00:22:32;99517.63;;;6.91;85.92
60417;BME280;46263;44.726;10.396;2024-01-15T00:24:58;99522.31;;;7.01;84.98
60417;BME280;46263;44.726;10.396;2024-01-15T00:27:23;99519.34;;;6.64;85.78
60417;BME280;46263;44.726;10.396;2024-01-15T00:29:49;99534.69;;;6.71;86.76
60417;BME280;46263;44.726;10.396;2024-01-15T00:32:16;99523.84;;;6.67;85.91
60417;BME280;46263;44.726;10.396;2024-01-15T00:34:41;99524.63;;;6.68;86.46
60417;BME280;46263;44.726;10.396;2024-01-15T00:37:07;99507.44;;;6.69;86.50
60417;BME280;46263;44.726;10.396;2024-01-15T00:39:33;99508.38;;;6.48;87.36
60417;BME280;46263;44.726;10.396;2024-01-15T00:41:58;99512.31;;;6.63;87.45
60417;BME280;46263;44.726;10.396;2024-01-15T00:44:23;99502.03;;;6.53;87.74
60417;BME280;46263;44.726;10.396;2024-01-15T00:46:49;99503.13;;;6.39;87.84
60417;BME280;46263;44.726;10.396;2024-01-15T00:49:15;99510.59;;;6.55;87.71
60417;BME280;46263;44.726;10.396;2024-01-15T00:51:41;99494.88;;;6.33;88.15
60417;BME280;46263;44.726;10.396;2024-01-15T00:54:07;99497.06;;;6.46;87.36
60417;BME280;46263;44.726;10.396;2024-01-15T00:56:32;99499.31;;;6.47;87.29
60417;BME280;46263;44.726;10.396;2024-01-15T00:58:58;99490.22;;;6.47;88.23
60417;BME280;46263;44.726;10.396;2024-01-15T01:01:23;99491.88;;;6.61;87.09
60417;BME280;46263;44.726;10.396;2024-01-15T01:03:49;99489.03;;;6.66;86.93
60417;BME280;46263;44.726;10.396;2024-01-15T01:06:14;99490.66;;;6.56;87.53
60417;BME280;46263;44.726;10.396;2024-01-15T01:08:40;99480.50;;;6.64;87.87
60417;BME280;46263;44.726;10.396;2024-01-15T01:11:05;99478.72;;;6.67;87.12
60417;BME280;46263;44.726;10.396;2024-01-15T01:13:32;99481.69;;;6.74;86.67
60417;BME280;46263;44.726;10.396;2024-01-15T01:15:58;99472.50;;;6.85;86.85
60417;BME280;46263;44.726;10.396;2024-01-15T01:18:23;99468.63;;;6.93;86.35
60417;BME280;46263;44.726;10.396;2024-01-15T01:20:49;99469.94;;;6.87;86.15
60417;BME280;46263;44.726;10.396;2024-01-15T01:23:14;99465.44;;;6.84;86.31
60417;BME280;46263;44.726;10.396;2024-01-15T01:25:40;99473.06;;;6.78;86.34
60417;BME280;46263;44.726;10.396;2024-01-15T01:28:05;99476.00;;;6.56;87.18
60417;BME280;46263;44.726;10.396;2024-01-15T01:30:31;99478.63;;;6.78;86.88
60417;BME280;46263;44.726;10.396;2024-01-15T01:32:56;99482.53;;;6.88;86.10
60417;BME280;46263;44.726;10.396;2024-01-15T01:35:22;99475.84;;;6.78;85.83
60417;BME280;46263;44.726;10.396;2024-01-15T01:37:48;99481.03;;;6.87;86.28
60417;BME280;46263;44.726;10.396;2024-01-15T01:40:13;99490.88;;;6.88;85.39
60417;BME280;46263;44.726;10.396;2024-01-15T01:42:39;99488.88;;;6.59;87.01
60417;BME280;46263;44.726;10.396;2024-01-15T01:45:05;99481.06;;;6.57;87.89
60417;BME280;46263;44.726;10.396;2024-01-15T01:47:31;99484.47;;;6.74;87.57
60417;BME280;46263;44.726;10.396;2024-01-15T01:49:57;99467.72;;;6.50;87.62
60417;BME280;46263;44.726;10.396;2024-01-15T01:52:23;99468.75;;;6.53;88.05
60417;BME280;46263;44.726;10.396;2024-01-15T01:54:49;99460.53;;;6.66;87.38
60417;BME280;46263;44.726;10.396;2024-01-15T01:57:15;99460.03;;;6.67;87.26
60417;BME280;46263;44.726;10.396;2024-01-15T01:59:42;99451.88;;;6.75;87.65
60417;BME280;46263;44.726;10.396;2024-01-15T02:02:07;99451.19;;;6.69;87.15
60417;BME280;46263;44.726;10.396;2024-01-15T02:04:33;99441.06;;;6.71;86.57
60417;BME280;46263;44.726;10.396;2024-01-15T02:06:59;99446.56;;;6.77;86.33
60417;BME280;46263;44.726;10.396;2024-01-15T02:09:25;99445.16;;;6.65;87.09
60417;BME280;46263;44.726;10.396;2024-01-15T02:11:51;99444.72;;;6.61;88.19
60417;BME280;46263;44.726;10.396;2024-01-15T02:14:16;99440.78;;;6.75;87.63
60417;BME280;46263;44.726;10.396;2024-01-15T02:16:42;99451.03;;;6.85;86.65
60417;BME280;46263;44.726;10.396;2024-01-15T02:19:15;99443.84;;;6.95;86.29
60417;BME280;46263;44.726;10.396;2024-01-15T02:21:41;99441.75;;;7.01;86.01
60417;BME280;46263;44.726;10.396;2024-01-15T02:24:06;99447.16;;;6.70;87.56
60417;BME280;46263;44.726;10.396;2024-01-15T02:26:32;99441.22;;;6.79;87.65
60417;BME280;46263;44.726;10.396;2024-01-15T02:29:01;99438.66;;;6.86;86.96
60417;BME280;46263;44.726;10.396;2024-01-15T02:31:27;99437.38;;;6.87;86.41
60417;BME280;46263;44.726;10.396;2024-01-15T02:33:52;99433.56;;;6.90;86.89
60417;BME280;46263;44.726;10.396;2024-01-15T02:36:17;99428.63;;;6.54;88.35
60417;BME280;46263;44.726;10.396;2024-01-15T02:38:43;99421.28;;;6.56;89.11
60417;BME280;46263;44.726;10.396;2024-01-15T02:41:08;99424.69;;;6.68;88.15
60417;BME280;46263;44.726;10.396;2024-01-15T02:43:34;99414.47;;;6.81;88.06
60417;BME280;46263;44.726;10.396;2024-01-15T02:45:59;99416.09;;;6.95;87.35
60417;BME280;46263;44.726;10.396;2024-01-15T02:48:25;99419.25;;;7.05;86.83
60417;BME280;46263;44.726;10.396;2024-01-15T02:50:50;99411.41;;;7.09;86.37
60417;BME280;46263;44.726;10.396;2024-01-15T02:53:15;99413.94;;;7.07;86.73
60417;BME280;46263;44.726;10.396;2024-01-15T02:55:41;99409.66;;;7.06;86.22
60417;BME280;46263;44.726;10.396;2024-01-15T02:58:07;99407.75;;;6.95;86.32
60417;BME280;46263;44.726;10.396;2024-01-15T03:00:33;99394.66;;;7.14;85.75
60417;BME280;46263;44.726;10.396;2024-01-15T03:02:58;99390.13;;;6.93;86.55
60417;BME280;46263;44.726;10.396;2024-01-15T03:05:24;99379.56;;;7.10;86.30
60417;BME280;46263;44.726;10.396;2024-01-15T03:07:49;99375.59;;;7.05;86.14
60417;BME280;46263;44.726;10.396;2024-01-15T03:10:15;99369.50;;;7.07;86.00
60417;BME280;46263;44.726;10.396;2024-01-15T03:12:40;99366.72;;;7.07;86.02
60417;BME280;46263;44.726;10.396;2024-01-15T03:15:06;99357.84;;;7.08;85.91
60417;BME280;46263;44.726;10.396;2024-01-15T03:17:31;99354.22;;;6.95;86.90
60417;BME280;46263;44.726;10.396;2024-01-15T03:19:57;99352.56;;;6.86;87.64
60417;BME280;46263;44.726;10.396;2024-01-15T03:22:22;99348.81;;;6.84;87.38
60417;BME280;46263;44.726;10.396;2024-01-15T03:24:48;99341.28;;;6.79;87.12
60417;BME280;46263;44.726;10.396;2024-01-15T03:27:13;99329.44;;;6.78;87.47
60417;BME280;46263;44.726;10.396;2024-01-15T03:29:39;99344.41;;;6.94;87.43
60417;BME280;46263;44.726;10.396;2024-01-15T03:32:05;99335.97;;;6.81;87.85
60417;BME280;46263;44.726;10.396;2024-01-15T03:34:30;99329.38;;;6.84;88.16
60417;BME280;46263;44.726;10.396;2024-01-15T03:36:56;99329.16;;;6.82;87.51
60417;BME280;46263;44.726;10.396;2024-01-15T03:39:21;99328.47;;;6.52;88.71
60417;BME280;46263;44.726;10.396;2024-01-15T03:41:47;99331.66;;;6.37;90.66
60417;BME280;46263;44.726;10.396;2024-01-15T03:44:12;99317.09;;;6.55;89.79
60417;BME280;46263;44.726;10.396;2024-01-15T03:46:38;99311.63;;;6.68;88.76
60417;BME280;46263;44.726;10.396;2024-01-15T03:49:04;99306.03;;;6.74;88.78
60417;BME280;46263;44.726;10.396;2024-01-15T03:51:29;99300.94;;;6.78;88.26
60417;BME280;46263;44.726;10.396;2024-01-15T03:53:55;99310.47;;;6.58;88.61
60417;BME280;46263;44.726;10.396;2024-01-15T03:56:20;99303.47;;;6.57;89.54
60417;BME280;46263;44.726;10.396;2024-01-15T03:58:46;99298.94;;;6.54;89.01
60417;BME280;46263;44.726;10.396;2024-01-15T04:01:11;99304.38;;;6.65;89.12
60417;BME280;46263;44.726;10.396;2024-01-15T04:03:37;99295.41;;;6.30;90.36
60417;BME280;46263;44.726;10.396;2024-01-15T04:06:06;99295.59;;;6.37;91.05
60417;BME280;46263;44.726;10.396;2024-01-15T04:08:31;99301.78;;;6.49;90.57
60417;BME280;46263;44.726;10.396;2024-01-15T04:10:56;99291.31;;;6.36;91.18
60417;BME280;46263;44.726;10.396;2024-01-15T04:13:22;99290.28;;;6.16;91.88
60417;BME280;46263;44.726;10.396;2024-01-15T04:15:48;99295.78;;;6.21;92.88
60417;BME280;46263;44.726;10.396;2024-01-15T04:18:15;99292.34;;;6.10;93.09
60417;BME280;46263;44.726;10.396;2024-01-15T04:20:41;99280.16;;;6.18;92.68
60417;BME280;46263;44.726;10.396;2024-01-15T04:23:06;99284.78;;;6.10;92.37
60417;BME280;46263;44.726;10.396;2024-01-15T04:25:32;99282.66;;;6.22;91.78
60417;BME280;46263;44.726;10.396;2024-01-15T04:27:57;99276.50;;;6.29;91.28
60417;BME280;46263;44.726;10.396;2024-01-15T04:30:22;99275.88;;;6.41;90.91
60417;BME280;46263;44.726;10.396;2024-01-15T04:32:48;99261.81;;;6.57;90.04
60417;BME280;46263;44.726;10.396;2024-01-15T04:35:13;99273.53;;;6.69;89.89
60417;BME280;46263;44.726;10.396;2024-01-15T04:37:39;99271.97;;;6.73;88.75
60417;BME280;46263;44.726;10.396;2024-01-15T04:40:05;99265.91;;;6.75;88.68
60417;BME280;46263;44.726;10.396;2024-01-15T04:42:31;99263.66;;;6.92;88.52
60417;BME280;46263;44.726;10.396;2024-01-15T04:44:57;99251.66;;;6.84;88.29
60417;BME280;46263;44.726;10.396;2024-01-15T04:47:22;99255.03;;;6.95;88.06
60417;BME280;46263;44.726;10.396;2024-01-15T04:49:48;99258.47;;;7.01;87.44
60417;BME280;46263;44.726;10.396;2024-01-15T04:52:14;99255.31;;;7.10;87.46
60417;BME280;46263;44.726;10.396;2024-01-15T04:54:39;99258.16;;;7.05;87.16
60417;BME280;46263;44.726;10.396;2024-01-15T04:57:05;99254.13;;;7.06;86.83
60417;BME280;46263;44.726;10.396;2024-01-15T04:59:31;99253.81;;;7.09;86.87
60417;BME280;46263;44.726;10.396;2024-01-15T05:01:56;99262.16;;;7.09;87.03
60417;BME280;46263;44.726;10.396;2024-01-15T05:04:22;99271.09;;;6.84;87.57
60417;BME280;46263;44.726;10.396;2024-01-15T05:06:47;99275.16;;;6.59;89.92
60417;BME280;46263;44.726;10.396;2024-01-15T05:09:13;99273.84;;;6.65;90.53
60417;BME280;46263;44.726;10.396;2024-01-15T05:11:39;99278.06;;;6.48;91.34
60417;BME280;46263;44.726;10.396;2024-01-15T05:14:04;99278.97;;;6.56;91.23
60417;BME280;46263;44.726;10.396;2024-01-15T05:16:30;99291.31;;;6.13;92.51
60417;BME280;46263;44.726;10.396;2024-01-15T05:18:55;99298.78;;;5.94;94.27
60417;BME280;46263;44.726;10.396;2024-01-15T05:21:21;99296.53;;;5.92;94.72
60417;BME280;46263;44.726;10.396;2024-01-15T05:23:46;99297.03;;;6.20;93.31
60417;BME280;46263;44.726;10.396;2024-01-15T05:26:12;99311.44;;;5.89;93.09
60417;BME280;46263;44.726;10.396;2024-01-15T05:28:37;99310.75;;;5.78;94.49
60417;BME280;46263;44.726;10.396;2024-01-15T05:31:03;99309.13;;;5.58;96.10
60417;BME280;46263;44.726;10.396;2024-01-15T05:33:29;99301.66;;;5.43;95.79
60417;BME280;46263;44.726;10.396;2024-01-15T05:35:55;99297.75;;;5.62;96.80
60417;BME280;46263;44.726;10.396;2024-01-15T05:38:20;99295.66;;;5.73;95.76
60417;BME280;46263;44.726;10.396;2024-01-15T05:40:46;99279.09;;;5.68;95.41
60417;BME280;46263;44.726;10.396;2024-01-15T05:43:11;99262.19;;;5.71;93.97
60417;BME280;46263;44.726;10.396;2024-01-15T05:45:38;99232.91;;;6.05;92.67
60417;BME280;46263;44.726;10.396;2024-01-15T05:48:04;99225.97;;;6.17;90.69
60417;BME280;46263;44.726;10.396;2024-01-15T05:50:29;99225.31;;;6.30;89.41
60417;BME280;46263;44.726;10.396;2024-01-15T05:52:55;99214.59;;;6.39;89.06
60417;BME280;46263;44.726;10.396;2024-01-15T05:55:20;99213.56;;;6.42;88.68
60417;BME280;46263;44.726;10.396;2024-01-15T05:57:46;99222.22;;;6.15;89.12
60417;BME280;46263;44.726;10.396;2024-01-15T06:00:12;99230.59;;;6.09;88.89
60417;BME280;46263;44.726;10.396;2024-01-15T06:02:38;99244.84;;;5.95;91.14
60417;BME280;46263;44.726;10.396;2024-01-15T06:05:05;99252.75;;;5.85;92.28
60417;BME280;46263;44.726;10.396;2024-01-15T06:07:31;99243.91;;;6.11;91.18
60417;BME280;46263;44.726;10.396;2024-01-15T06:09:57;99236.81;;;6.15;90.45
60417;BME280;46263;44.726;10.396;2024-01-15T06:12:23;99238.78;;;6.44;89.57
60417;BME280;46263;44.726;10.396;2024-01-15T06:14:48;99244.44;;;6.33;88.38
60417;BME280;46263;44.726;10.396;2024-01-15T06:17:14;99237.28;;;5.95;91.29
60417;BME280;46263;44.726;10.396;2024-01-15T06:19:39;99225.97;;;5.93;91.16
60417;BME280;46263;44.726;10.396;2024-01-15T06:22:05;99238.09;;;6.14;91.16
60417;BME280;46263;44.726;10.396;2024-01-15T06:24:30;99250.09;;;6.22;90.13
60417;BME280;46263;44.726;10.396;2024-01-15T06:26:56;99251.75;;;6.12;90.31
60417;BME280;46263;44.726;10.396;2024-01-15T06:29:21;99251.50;;;6.34;89.88
60417;BME280;46263;44.726;10.396;2024-01-15T06:31:47;99246.59;;;6.22;89.27
60417;BME280;46263;44.726;10.396;2024-01-15T06:34:12;99239.78;;;6.23;89.28
60417;BME280;46263;44.726;10.396;2024-01-15T06:36:38;99228.78;;;6.35;89.45
60417;BME280;46263;44.726;10.396;2024-01-15T06:39:03;99231.16;;;6.26;89.28
60417;BME280;46263;44.726;10.396;2024-01-15T06:41:29;99238.75;;;6.26;89.64
60417;BME280;46263;44.726;10.396;2024-01-15T06:43:54;99235.78;;;6.42;88.78
60417;BME280;46263;44.726;10.396;2024-01-15T06:46:21;99230.53;;;6.57;88.07
60417;BME280;46263;44.726;10.396;2024-01-15T06:48:47;99257.78;;;6.34;89.23
60417;BME280;46263;44.726;10.396;2024-01-15T06:51:13;99249.06;;;6.25;89.94
60417;BME280;46263;44.726;10.396;2024-01-15T06:53:38;99235.72;;;6.24;89.40
60417;BME280;46263;44.726;10.396;2024-01-15T06:56:05;99240.06;;;6.19;90.74
60417;BME280;46263;44.726;10.396;2024-01-15T06:58:33;99235.88;;;5.83;91.59
60417;BME280;46263;44.726;10.396;2024-01-15T07:00:59;99218.91;;;6.16;91.18
60417;BME280;46263;44.726;10.396;2024-01-15T07:03:25;99215.72;;;6.31;89.44
60417;BME280;46263;44.726;10.396;2024-01-15T07:05:50;99217.88;;;6.19;88.61
60417;BME280;46263;44.726;10.396;2024-01-15T07:08:15;99209.72;;;6.03;90.12
60417;BME280;46263;44.726;10.396;2024-01-15T07:10:41;99206.03;;;5.95;91.50
60417;BME280;46263;44.726;10.396;2024-01-15T07:13:06;99207.28;;;5.94;91.56
60417;BME280;46263;44.726;10.396;2024-01-15T07:15:32;99213.66;;;6.13;91.85
60417;BME280;46263;44.726;10.396;2024-01-15T07:17:57;99204.75;;;5.96;91.91
60417;BME280;46263;44.726;10.396;2024-01-15T07:20:23;99219.59;;;5.98;94.21
60417;BME280;46263;44.726;10.396;2024-01-15T07:22:48;99223.75;;;5.86;95.34
60417;BME280;46263;44.726;10.396;2024-01-15T07:25:15;99217.53;;;6.04;93.16
60417;BME280;46263;44.726;10.396;2024-01-15T07:27:41;99222.91;;;6.21;92.94
60417;BME280;46263;44.726;10.396;2024-01-15T07:30:10;99222.00;;;6.31;89.37
60417;BME280;46263;44.726;10.396;2024-01-15T07:32:35;99230.34;;;6.31;88.18
60417;BME280;46263;44.726;10.396;2024-01-15T07:35:01;99223.88;;;5.99;90.02
60417;BME280;46263;44.726;10.396;2024-01-15T07:37:26;99223.25;;;6.12;90.28
60417;BME280;46263;44.726;10.396;2024-01-15T07:39:52;99226.34;;;6.27;89.62
60417;BME280;46263;44.726;10.396;2024-01-15T07:42:17;99212.75;;;6.47;87.92
60417;BME280;46263;44.726;10.396;2024-01-15T07:44:43;99214.56;;;6.21;88.81
60417;BME280;46263;44.726;10.396;2024-01-15T07:47:08;99224.47;;;6.16;90.56
60417;BME280;46263;44.726;10.396;2024-01-15T07:49:34;99219.59;;;6.46;88.79
60417;BME280;46263;44.726;10.396;2024-01-15T07:52:00;99233.81;;;6.37;88.34
60417;BME280;46263;44.726;10.396;2024-01-15T07:54:26;99238.78;;;6.44;89.15
60417;BME280;46263;44.726;10.396;2024-01-15T07:57:00;99241.22;;;6.29;88.36
60417;BME280;46263;44.726;10.396;2024-01-15T07:59:27;99238.41;;;6.53;88.20
60417;BME280;46263;44.726;10.396;2024-01-15T08:01:52;99237.56;;;6.39;87.30
60417;BME280;46263;44.726;10.396;2024-01-15T08:04:18;99247.03;;;6.49;88.91
60417;BME280;46263;44.726;10.396;2024-01-15T08:06:44;99252.84;;;6.70;87.51
60417;BME280;46263;44.726;10.396;2024-01-15T08:09:10;99242.03;;;6.85;86.45
60417;BME280;46263;44.726;10.396;2024-01-15T08:11:37;99250.00;;;6.94;86.68
60417;BME280;46263;44.726;10.396;2024-01-15T08:14:04;99249.78;;;6.73;85.85
60417;BME280;46263;44.726;10.396;2024-01-15T08:16:29;99246.75;;;6.53;89.33
60417;BME280;46263;44.726;10.396;2024-01-15T08:18:55;99254.56;;;6.73;87.84
60417;BME280;46263;44.726;10.396;2024-01-15T08:21:20;99249.91;;;6.81;85.73
60417;BME280;46263;44.726;10.396;2024-01-15T08:23:46;99241.50;;;6.86;85.40
60417;BME280;46263;44.726;10.396;2024-01-15T08:26:11;99249.00;;;6.73;85.78
60417;BME280;46263;44.726;10.396;2024-01-15T08:28:37;99258.59;;;6.72;85.58
60417;BME280;46263;44.726;10.396;2024-01-15T08:31:02;99268.13;;;6.34;89.22
60417;BME280;46263;44.726;10.396;2024-01-15T08:33:28;99262.25;;;6.43;89.07
60417;BME280;46263;44.726;10.396;2024-01-15T08:35:54;99257.34;;;6.31;89.39
60417;BME280;46263;44.726;10.396;2024-01-15T08:38:20;99251.38;;;6.45;90.23
60417;BME280;46263;44.726;10.396;2024-01-15T08:40:46;99263.41;;;6.71;87.05
60417;BME280;46263;44.726;10.396;2024-01-15T08:43:11;99267.41;;;6.94;86.06
60417;BME280;46263;44.726;10.396;2024-01-15T08:45:37;99281.28;;;6.76;85.54
60417;BME280;46263;44.726;10.396;2024-01-15T08:48:02;99277.66;;;6.81;86.66
60417;BME280;46263;44.726;10.396;2024-01-15T08:50:29;99267.94;;;6.50;87.61
60417;BME280;46263;44.726;10.396;2024-01-15T08:52:55;99274.22;;;6.75;87.58
60417;BME280;46263;44.726;10.396;2024-01-15T08:55:21;99272.66;;;6.79;87.26
60417;BME280;46263;44.726;10.396;2024-01-15T08:57:48;99255.56;;;6.94;86.20
60417;BME280;46263;44.726;10.396;2024-01-15T09:00:14;99259.44;;;7.04;85.33
60417;BME280;46263;44.726;10.396;2024-01-15T09:02:39;99262.06;;;7.14;85.57
60417;BME280;46263;44.726;10.396;2024-01-15T09:05:05;99266.50;;;7.05;86.73
60417;BME280;46263;44.726;10.396;2024-01-15T09:07:32;99267.19;;;7.11;86.44
60417;BME280;46263;44.726;10.396;2024-01-15T09:09:57;99264.59;;;7.31;85.48
60417;BME280;46263;44.726;10.396;2024-01-15T09:12:25;99274.09;;;7.22;86.26
60417;BME280;46263;44.726;10.396;2024-01-15T09:14:50;99266.72;;;7.07;86.69
60417;BME280;46263;44.726;10.396;2024-01-15T09:17:17;99258.63;;;7.09;86.49
60417;BME280;46263;44.726;10.396;2024-01-15T09:19:43;99253.06;;;7.27;85.94
60417;BME280;46263;44.726;10.396;2024-01-15T09:22:08;99248.72;;;7.13;86.59
60417;BME280;46263;44.726;10.396;2024-01-15T09:24:34;99250.19;;;7.32;86.17
60417;BME280;46263;44.726;10.396;2024-01-15T09:26:59;99252.00;;;7.30;85.63
60417;BME280;46263;44.726;10.396;2024-01-15T09:29:25;99259.75;;;7.18;85.96
60417;BME280;46263;44.726;10.396;2024-01-15T09:31:51;99256.13;;;7.23;86.33
60417;BME280;46263;44.726;10.396;2024-01-15T09:34:17;99257.25;;;7.15;85.93
60417;BME280;46263;44.726;10.396;2024-01-15T09:36:42;99262.22;;;7.22;86.60
60417;BME280;46263;44.726;10.396;2024-01-15T09:39:09;99263.81;;;7.17;87.49
60417;BME280;46263;44.726;10.396;2024-01-15T09:41:36;99260.94;;;7.41;86.08
60417;BME280;46263;44.726;10.396;2024-01-15T09:44:03;99268.81;;;7.37;86.13
60417;BME280;46263;44.726;10.396;2024-01-15T09:46:32;99263.16;;;7.43;85.98
60417;BME280;46263;44.726;10.396;2024-01-15T09:48:58;99259.03;;;7.49;85.55
60417;BME280;46263;44.726;10.396;2024-01-15T09:51:24;99260.22;;;7.54;84.88
60417;BME280;46263;44.726;10.396;2024-01-15T09:53:50;99259.22;;;7.70;85.15
60417;BME280;46263;44.726;10.396;2024-01-15T09:56:16;99251.19;;;7.66;85.65
60417;BME280;46263;44.726;10.396;2024-01-15T09:58:42;99248.34;;;7.85;84.87
60417;BME280;46263;44.726;10.396;2024-01-15T10:01:08;99239.84;;;7.77;85.00
60417;BME280;46263;44.726;10.396;2024-01-15T10:03:37;99229.28;;;7.76;85.28
60417;BME280;46263;44.726;10.396;2024-01-15T10:06:04;99219.50;;;7.56;85.70
60417;BME280;46263;44.726;10.396;2024-01-15T10:08:31;99210.16;;;7.85;85.76
60417;BME280;46263;44.726;10.396;2024-01-15T10:10:57;99206.97;;;8.07;84.00
60417;BME280;46263;44.726;10.396;2024-01-15T10:13:25;99214.94;;;8.29;83.44
60417;BME280;46263;44.726;10.396;2024-01-15T10:15:53;99207.50;;;8.44;82.56
60417;BME280;46263;44.726;10.396;2024-01-15T10:18:18;99203.59;;;8.40;82.45
60417;BME280;46263;44.726;10.396;2024-01-15T10:20:45;99202.41;;;8.35;81.76
60417;BME280;46263;44.726;10.396;2024-01-15T10:23:10;99203.34;;;8.51;81.27
60417;BME280;46263;44.726;10.396;2024-01-15T10:25:36;99203.38;;;8.38;81.05
60417;BME280;46263;44.726;10.396;2024-01-15T10:28:03;99192.63;;;8.42;81.01
60417;BME280;46263;44.726;10.396;2024-01-15T10:30:29;99196.72;;;8.41;81.02
60417;BME280;46263;44.726;10.396;2024-01-15T10:33:02;99196.19;;;8.29;82.07
60417;BME280;46263;44.726;10.396;2024-01-15T10:35:31;99184.69;;;8.59;81.64
60417;BME280;46263;44.726;10.396;2024-01-15T10:37:57;99187.91;;;8.50;81.99
60417;BME280;46263;44.726;10.396;2024-01-15T10:40:23;99183.00;;;8.43;81.10
60417;BME280;46263;44.726;10.396;2024-01-15T10:42:48;99180.84;;;8.49;81.32
60417;BME280;46263;44.726;10.396;2024-01-15T10:45:14;99174.88;;;8.45;82.15
60417;BME280;46263;44.726;10.396;2024-01-15T10:47:41;99168.97;;;8.48;81.32
60417;BME280;46263;44.726;10.396;2024-01-15T10:50:08;99160.25;;;8.77;80.60
60417;BME280;46263;44.726;10.396;2024-01-15T10:52:35;99157.94;;;8.89;80.22
60417;BME280;46263;44.726;10.396;2024-01-15T10:55:02;99149.97;;;9.06;80.16
60417;BME280;46263;44.726;10.396;2024-01-15T10:57:29;99147.44;;;9.15;79.61
60417;BME280;46263;44.726;10.396;2024-01-15T10:59:55;99144.63;;;9.28;78.71
60417;BME280;46263;44.726;10.396;2024-01-15T11:02:20;99142.44;;;9.34;77.32
60417;BME280;46263;44.726;10.396;2024-01-15T11:04:46;99126.84;;;8.98;77.84
60417;BME280;46263;44.726;10.396;2024-01-15T11:07:13;99130.38;;;9.19;79.09
60417;BME280;46263;44.726;10.396;2024-01-15T11:09:39;99120.72;;;9.20;78.72
60417;BME280;46263;44.726;10.396;2024-01-15T11:12:10;99119.66;;;9.02;78.48
60417;BME280;46263;44.726;10.396;2024-01-15T11:14:40;99113.94;;;9.28;78.60
60417;BME280;46263;44.726;10.396;2024-01-15T11:17:09;99102.44;;;9.52;78.29
60417;BME280;46263;44.726;10.396;2024-01-15T11:19:42;99109.78;;;9.70;77.82
60417;BME280;46263;44.726;10.396;2024-01-15T11:22:47;99100.75;;;9.77;79.58
60417;BME280;46263;44.726;10.396;2024-01-15T11:25:13;99097.13;;;9.97;79.36
60417;BME280;46263;44.726;10.396;2024-01-15T11:27:41;99081.69;;;9.96;79.16
60417;BME280;46263;44.726;10.396;2024-01-15T11:30:08;99074.81;;;9.97;78.31
60417;BME280;46263;44.726;10.396;2024-01-15T11:32:37;99072.84;;;10.05;75.79
60417;BME280;46263;44.726;10.396;2024-01-15T11:35:06;99072.16;;;9.84;77.15
60417;BME280;46263;44.726;10.396;2024-01-15T11:40:42;99067.47;;;10.07;77.40
60417;BME280;46263;44.726;10.396;2024-01-15T11:43:11;99066.41;;;9.89;76.59
60417;BME280;46263;44.726;10.396;2024-01-15T11:45:39;99053.09;;;10.03;76.59
60417;BME280;46263;44.726;10.396;2024-01-15T11:48:12;99053.09;;;10.03;75.07
60417;BME280;46263;44.726;10.396;2024-01-15T11:50:40;99043.22;;;10.02;76.16
60417;BME280;46263;44.726;10.396;2024-01-15T11:53:15;99037.69;;;10.09;75.60
60417;BME280;46263;44.726;10.396;2024-01-15T11:55:44;99038.00;;;9.98;75.83
60417;BME280;46263;44.726;10.396;2024-01-15T11:58:11;99039.25;;;10.25;74.42
60417;BME280;46263;44.726;10.396;2024-01-15T12:00:48;99032.66;;;10.08;74.73
60417;BME280;46263;44.726;10.396;2024-01-15T12:03:17;99021.56;;;10.23;74.39
60417;BME280;46263;44.726;10.396;2024-01-15T12:05:45;99017.28;;;10.22;75.39
60417;BME280;46263;44.726;10.396;2024-01-15T12:08:10;99012.25;;;10.28;74.18
60417;BME280;46263;44.726;10.396;2024-01-15T12:10:40;99010.09;;;10.48;73.14
60417;BME280;46263;44.726;10.396;2024-01-15T12:13:13;99003.22;;;10.64;72.67
60417;BME280;46263;44.726;10.396;2024-01-15T12:15:40;98997.84;;;10.81;72.16
60417;BME280;46263;44.726;10.396;2024-01-15T12:18:10;98993.56;;;10.95;71.22
60417;BME280;46263;44.726;10.396;2024-01-15T12:20:36;98995.81;;;11.04;70.60
60417;BME280;46263;44.726;10.396;2024-01-15T12:23:02;98982.94;;;11.01;71.42
60417;BME280;46263;44.726;10.396;2024-01-15T12:25:33;98993.75;;;11.05;70.67
60417;BME280;46263;44.726;10.396;2024-01-15T12:28:00;98984.97;;;11.08;70.66
60417;BME280;46263;44.726;10.396;2024-01-15T12:30:27;98981.25;;;11.20;70.16
60417;BME280;46263;44.726;10.396;2024-01-15T12:32:53;98969.28;;;11.27;69.25
60417;BME280;46263;44.726;10.396;2024-01-15T12:35:19;98979.00;;;11.19;69.53
60417;BME280;46263;44.726;10.396;2024-01-15T12:37:45;98978.28;;;11.11;69.35
60417;BME280;46263;44.726;10.396;2024-01-15T12:40:18;98966.91;;;10.94;70.38
60417;BME280;46263;44.726;10.396;2024-01-15T12:42:44;98956.66;;;11.19;70.05
60417;BME280;46263;44.726;10.396;2024-01-15T12:45:12;98949.19;;;10.99;70.47
60417;BME280;46263;44.726;10.396;2024-01-15T12:47:39;98946.81;;;10.88;71.40
60417;BME280;46263;44.726;10.396;2024-01-15T12:50:11;98936.72;;;10.85;72.31
60417;BME280;46263;44.726;10.396;2024-01-15T12:52:37;98934.69;;;10.93;71.87
60417;BME280;46263;44.726;10.396;2024-01-15T12:55:06;98940.25;;;10.93;71.48
60417;BME280;46263;44.726;10.396;2024-01-15T12:57:32;98929.06;;;11.08;71.52